createdAt,value
2018-06-15T00:01:09.293Z,8.57
2018-06-15T00:03:37.561Z,7.57
2018-06-15T00:06:05.809Z,7.67
2018-06-15T00:08:34.069Z,8.07
2018-06-15T00:11:02.317Z,7.63
2018-06-15T00:13:30.567Z,8.37
2018-06-15T00:15:58.817Z,9.23
2018-06-15T00:18:27.064Z,9.07
2018-06-15T00:20:55.304Z,9.20
2018-06-15T00:23:23.549Z,9.40
2018-06-15T00:25:51.785Z,9.87
2018-06-15T00:28:20.045Z,10.00
2018-06-15T00:30:48.325Z,10.37
2018-06-15T00:33:16.567Z,10.90
2018-06-15T00:35:44.813Z,10.83
2018-06-15T00:38:13.050Z,11.07
2018-06-15T00:40:41.309Z,9.43
2018-06-15T00:43:09.560Z,10.40
2018-06-15T00:45:37.808Z,10.60
2018-06-15T00:48:06.056Z,9.77
2018-06-15T00:50:34.288Z,10.67
2018-06-15T00:53:02.501Z,11.00
2018-06-15T00:55:30.749Z,10.30
2018-06-15T00:57:58.973Z,11.03
2018-06-15T01:00:27.188Z,10.77
2018-06-15T01:02:55.406Z,12.33
2018-06-15T01:05:23.637Z,11.27
2018-06-15T01:07:51.851Z,11.90
2018-06-15T01:10:20.074Z,11.20
2018-06-15T01:12:48.312Z,12.73
2018-06-15T01:15:16.308Z,12.33
2018-06-15T01:17:44.540Z,12.23
2018-06-15T01:20:12.803Z,10.97
2018-06-15T01:22:41.049Z,11.03
2018-06-15T01:25:09.326Z,11.10
2018-06-15T01:27:37.561Z,11.47
2018-06-15T01:30:06.096Z,11.27
2018-06-15T01:32:34.333Z,11.77
2018-06-15T01:35:02.664Z,11.20
2018-06-15T01:37:30.910Z,10.47
2018-06-15T01:39:59.153Z,10.27
2018-06-15T01:42:27.392Z,10.50
2018-06-15T01:44:55.630Z,9.77
2018-06-15T01:47:23.869Z,10.60
2018-06-15T01:49:52.096Z,11.27
2018-06-15T01:52:20.368Z,11.87
2018-06-15T01:54:48.624Z,11.07
2018-06-15T01:57:16.868Z,10.50
2018-06-15T01:59:45.100Z,10.23
2018-06-15T02:02:13.365Z,9.83
2018-06-15T02:04:41.616Z,10.27
2018-06-15T02:07:09.864Z,10.00
2018-06-15T02:09:38.101Z,9.87
2018-06-15T02:12:06.342Z,10.07
2018-06-15T02:14:34.905Z,9.50
2018-06-15T02:17:03.189Z,9.70
2018-06-15T02:19:31.434Z,9.63
2018-06-15T02:21:59.682Z,10.03
2018-06-15T02:24:27.933Z,9.97
2018-06-15T02:26:56.177Z,10.50
2018-06-15T02:29:24.412Z,10.03
2018-06-15T02:31:52.655Z,10.13
2018-06-15T02:34:20.902Z,10.07
2018-06-15T02:36:49.137Z,9.93
2018-06-15T02:39:17.405Z,10.47
2018-06-15T02:41:45.757Z,9.27
2018-06-15T02:44:14.005Z,10.13
2018-06-15T02:46:42.246Z,10.30
2018-06-15T02:49:10.516Z,9.80
2018-06-15T02:51:38.784Z,10.03
2018-06-15T02:54:07.025Z,11.00
2018-06-15T02:56:35.345Z,10.60
2018-06-15T02:59:03.654Z,11.60
2018-06-15T03:01:31.853Z,11.17
2018-06-15T03:04:00.077Z,11.17
2018-06-15T03:06:28.314Z,11.40
2018-06-15T03:08:56.554Z,11.97
2018-06-15T03:11:24.776Z,10.83
2018-06-15T03:13:53.028Z,12.13
2018-06-15T03:16:21.320Z,12.17
2018-06-15T03:18:49.546Z,12.27
2018-06-15T03:21:17.779Z,11.50
2018-06-15T03:23:46.006Z,11.47
2018-06-15T03:26:14.282Z,12.33
2018-06-15T03:28:42.558Z,11.50
2018-06-15T03:31:10.859Z,11.37
2018-06-15T03:34:56.083Z,10.77
2018-06-15T03:37:24.397Z,11.10
2018-06-15T03:39:52.680Z,10.80
2018-06-15T03:42:20.945Z,10.73
2018-06-15T03:44:49.209Z,11.70
2018-06-15T03:47:17.458Z,10.90
2018-06-15T03:49:45.790Z,13.07
2018-06-15T03:52:14.082Z,12.63
2018-06-15T03:54:42.347Z,12.30
2018-06-15T03:57:10.605Z,13.63
2018-06-15T03:59:38.854Z,12.67
2018-06-15T04:02:07.703Z,12.23
2018-06-15T04:04:36.003Z,11.57
2018-06-15T04:07:04.294Z,12.23
2018-06-15T04:09:32.628Z,12.17
2018-06-15T04:12:01.257Z,11.57
2018-06-15T04:14:29.589Z,11.03
2018-06-15T04:16:57.933Z,11.10
2018-06-15T04:19:25.944Z,10.83
2018-06-15T04:21:54.250Z,10.37
2018-06-15T04:24:22.553Z,11.20
2018-06-15T04:26:50.836Z,10.93
2018-06-15T04:29:19.100Z,10.47
2018-06-15T04:31:47.462Z,10.57
2018-06-15T04:34:15.730Z,9.13
2018-06-15T04:36:44.003Z,10.87
2018-06-15T04:39:12.271Z,10.10
2018-06-15T04:41:40.572Z,10.50
2018-06-15T04:44:08.952Z,9.90
2018-06-15T04:46:37.315Z,9.10
2018-06-15T04:49:05.578Z,9.90
2018-06-15T04:51:33.880Z,9.03
2018-06-15T04:54:02.188Z,9.80
2018-06-15T04:56:30.486Z,9.43
2018-06-15T04:58:58.850Z,9.83
2018-06-15T05:01:27.344Z,10.13
2018-06-15T05:03:55.888Z,9.30
2018-06-15T05:06:24.264Z,9.93
2018-06-15T05:08:52.554Z,9.80
2018-06-15T05:11:20.863Z,11.20
2018-06-15T05:13:49.136Z,9.83
2018-06-15T05:16:18.358Z,10.00
2018-06-15T05:18:46.614Z,8.90
2018-06-15T05:21:15.084Z,9.90
2018-06-15T05:23:43.362Z,9.57
2018-06-15T05:26:11.638Z,9.17
2018-06-15T05:28:39.937Z,9.77
2018-06-15T05:31:08.202Z,9.13
2018-06-15T05:33:36.494Z,10.10
2018-06-15T05:36:04.792Z,10.03
2018-06-15T05:38:33.162Z,10.23
2018-06-15T05:41:01.448Z,9.20
2018-06-15T05:43:29.722Z,9.73
2018-06-15T05:45:57.987Z,9.47
2018-06-15T05:48:26.259Z,8.03
2018-06-15T05:50:54.567Z,10.27
2018-06-15T05:53:22.854Z,10.37
2018-06-15T05:55:51.131Z,10.50
2018-06-15T05:58:19.410Z,10.13
2018-06-15T06:00:47.698Z,9.50
2018-06-15T06:03:19.978Z,9.77
2018-06-15T06:05:48.902Z,9.03
2018-06-15T06:08:19.123Z,9.17
2018-06-15T06:10:47.870Z,10.10
2018-06-15T06:13:16.258Z,9.37
2018-06-15T06:15:44.679Z,9.73
2018-06-15T06:18:13.056Z,8.53
2018-06-15T06:20:41.343Z,8.90
2018-06-15T06:23:09.774Z,7.63
2018-06-15T06:25:38.048Z,8.67
2018-06-15T06:28:06.316Z,8.23
2018-06-15T06:30:34.575Z,8.57
2018-06-15T06:33:02.835Z,8.77
2018-06-15T06:35:31.127Z,7.93
2018-06-15T06:37:59.479Z,8.47
2018-06-15T06:40:27.740Z,7.40
2018-06-15T06:42:56.003Z,7.83
2018-06-15T06:45:24.260Z,7.90
2018-06-15T06:47:52.524Z,8.70
2018-06-15T06:50:20.804Z,8.90
2018-06-15T06:52:49.076Z,7.50
2018-06-15T06:55:17.346Z,8.03
2018-06-15T06:57:45.612Z,8.40
2018-06-15T07:00:13.883Z,9.67
2018-06-15T07:02:42.139Z,8.93
2018-06-15T07:05:10.438Z,9.33
2018-06-15T07:07:38.708Z,9.10
2018-06-15T07:10:06.971Z,9.18
2018-06-15T07:12:35.255Z,9.55
2018-06-15T07:15:03.535Z,10.13
2018-06-15T07:17:31.803Z,9.33
2018-06-15T07:20:00.084Z,9.43
2018-06-15T07:22:28.364Z,10.30
2018-06-15T07:24:56.622Z,9.83
2018-06-15T07:27:24.913Z,10.15
2018-06-15T07:29:53.176Z,9.63
2018-06-15T07:32:21.430Z,9.93
2018-06-15T07:34:49.697Z,8.30
2018-06-15T07:37:17.954Z,8.73
2018-06-15T07:39:46.270Z,8.45
2018-06-15T07:42:14.542Z,9.08
2018-06-15T07:44:42.802Z,9.63
2018-06-15T07:47:11.086Z,9.98
2018-06-15T07:49:39.347Z,10.75
2018-06-15T07:52:07.622Z,9.53
2018-06-15T07:54:35.888Z,8.25
2018-06-15T07:57:04.155Z,9.90
2018-06-15T07:59:32.464Z,9.50
2018-06-15T08:02:00.727Z,10.63
2018-06-15T08:04:28.995Z,8.75
2018-06-15T08:06:57.312Z,11.03
2018-06-15T08:09:25.647Z,11.08
2018-06-15T08:11:53.919Z,10.35
2018-06-15T08:14:22.190Z,10.28
2018-06-15T08:16:50.457Z,10.88
2018-06-15T08:19:18.738Z,11.78
2018-06-15T08:21:47.015Z,11.00
2018-06-15T08:24:15.298Z,9.85
2018-06-15T08:26:43.567Z,10.98
2018-06-15T08:29:11.875Z,11.55
2018-06-15T08:31:40.138Z,9.25
2018-06-15T08:34:08.414Z,10.10
2018-06-15T08:36:36.695Z,10.32
2018-06-15T08:39:08.375Z,11.12
2018-06-15T08:41:36.657Z,8.40
2018-06-15T08:44:05.053Z,11.18
2018-06-15T08:46:33.355Z,10.08
2018-06-15T08:49:01.634Z,10.08
2018-06-15T08:51:29.899Z,9.33
2018-06-15T08:53:58.158Z,8.53
2018-06-15T08:56:26.418Z,9.23
2018-06-15T08:58:54.674Z,8.45
2018-06-15T09:01:23.599Z,11.10
2018-06-15T09:03:51.853Z,9.25
2018-06-15T09:06:20.111Z,8.93
2018-06-15T09:08:48.417Z,9.65
2018-06-15T09:11:16.686Z,7.47
2018-06-15T09:13:44.975Z,8.43
2018-06-15T09:16:13.275Z,8.55
2018-06-15T09:18:41.547Z,11.00
2018-06-15T09:21:09.836Z,10.35
2018-06-15T09:23:37.833Z,9.60
2018-06-15T09:26:06.120Z,11.30
2018-06-15T09:28:34.386Z,9.63
2018-06-15T09:31:02.678Z,9.25
2018-06-15T09:33:30.945Z,10.23
2018-06-15T09:35:59.214Z,9.65
2018-06-15T09:38:27.474Z,8.65
2018-06-15T09:40:55.753Z,9.58
2018-06-15T09:43:24.010Z,8.30
2018-06-15T09:45:52.277Z,8.63
2018-06-15T09:48:20.554Z,10.10
2018-06-15T09:50:48.822Z,10.05
2018-06-15T09:53:17.111Z,8.63
2018-06-15T09:55:45.376Z,8.25
2018-06-15T09:58:13.657Z,7.40
2018-06-15T10:00:47.246Z,9.10
2018-06-15T10:03:15.525Z,9.75
2018-06-15T10:05:43.799Z,8.08
2018-06-15T10:08:12.078Z,8.60
2018-06-15T10:10:40.352Z,8.45
2018-06-15T10:13:08.650Z,8.83
2018-06-15T10:15:36.918Z,8.90
2018-06-15T10:18:05.242Z,8.10
2018-06-15T10:20:33.544Z,9.13
2018-06-15T10:23:01.854Z,9.48
2018-06-15T10:25:30.135Z,9.00
2018-06-15T10:27:58.418Z,9.03
2018-06-15T10:30:26.688Z,7.45
2018-06-15T10:32:55.165Z,8.28
2018-06-15T10:35:23.416Z,7.55
2018-06-15T10:37:51.696Z,7.97
2018-06-15T10:40:19.980Z,7.90
2018-06-15T10:42:48.270Z,7.03
2018-06-15T10:45:16.570Z,6.87
2018-06-15T10:47:44.850Z,6.78
2018-06-15T10:50:13.167Z,6.00
2018-06-15T10:52:41.437Z,5.90
2018-06-15T10:55:09.726Z,5.78
2018-06-15T10:57:38.003Z,5.33
2018-06-15T11:00:06.335Z,6.90
2018-06-15T11:02:34.599Z,6.37
2018-06-15T11:05:02.949Z,6.83
2018-06-15T11:07:31.210Z,6.20
2018-06-15T11:09:59.482Z,6.62
2018-06-15T11:12:27.744Z,6.92
2018-06-15T11:14:56.012Z,6.50
2018-06-15T11:17:24.303Z,6.10
2018-06-15T11:19:52.853Z,6.25
2018-06-15T11:22:21.099Z,5.35
2018-06-15T11:24:49.370Z,5.87
2018-06-15T11:27:17.641Z,5.10
2018-06-15T11:29:45.938Z,6.20
2018-06-15T11:32:14.320Z,5.60
2018-06-15T11:37:17.299Z,5.67
2018-06-15T11:39:45.562Z,5.85
2018-06-15T11:42:13.836Z,5.30
2018-06-15T11:44:42.094Z,5.62
2018-06-15T11:47:10.352Z,6.35
2018-06-15T11:49:38.611Z,6.25
2018-06-15T11:52:06.902Z,6.03
2018-06-15T11:54:35.191Z,5.92
2018-06-15T11:57:03.498Z,4.97
2018-06-15T11:59:31.879Z,5.75
2018-06-15T12:02:00.171Z,6.25
2018-06-15T12:04:28.455Z,5.55
2018-06-15T12:06:56.730Z,5.80
2018-06-15T12:09:25.033Z,6.00
2018-06-15T12:11:53.338Z,5.87
2018-06-15T12:14:21.598Z,5.95
2018-06-15T12:16:49.868Z,5.95
2018-06-15T12:19:18.131Z,5.72
2018-06-15T12:21:46.439Z,5.35
2018-06-15T12:24:14.708Z,5.30
2018-06-15T12:26:42.979Z,5.47
2018-06-15T12:29:11.267Z,5.15
2018-06-15T12:31:39.551Z,4.80
2018-06-15T12:34:07.879Z,5.53
2018-06-15T12:36:36.138Z,4.42
2018-06-15T12:39:06.994Z,4.58
2018-06-15T12:41:35.260Z,4.85
2018-06-15T12:44:03.566Z,4.80
2018-06-15T12:46:31.838Z,5.12
2018-06-15T12:49:00.142Z,5.25
2018-06-15T12:51:28.516Z,5.17
2018-06-15T12:53:56.930Z,5.60
2018-06-15T12:56:25.196Z,4.67
2018-06-15T12:58:53.493Z,4.30
2018-06-15T13:01:21.763Z,4.35
2018-06-15T13:03:50.057Z,4.87
2018-06-15T13:06:18.327Z,4.75
2018-06-15T13:08:46.595Z,5.05
2018-06-15T13:11:14.871Z,4.78
2018-06-15T13:13:43.129Z,5.25
2018-06-15T13:16:11.379Z,5.25
2018-06-15T13:18:39.642Z,5.50
2018-06-15T13:21:07.952Z,5.90
2018-06-15T13:23:36.778Z,5.60
2018-06-15T13:26:05.802Z,6.08
2018-06-15T13:28:34.075Z,4.85
2018-06-15T13:31:02.334Z,4.92
2018-06-15T13:33:30.706Z,6.35
2018-06-15T13:35:58.968Z,5.45
2018-06-15T13:38:27.231Z,6.10
2018-06-15T13:40:55.372Z,5.85
2018-06-15T13:43:25.770Z,5.40
2018-06-15T13:45:54.649Z,5.55
2018-06-15T14:05:42.126Z,5.87
2018-06-15T14:08:13.155Z,5.65
2018-06-15T14:10:41.597Z,6.15
2018-06-15T14:13:10.529Z,5.80
2018-06-15T14:15:39.616Z,5.72
2018-06-15T14:35:26.057Z,5.97
2018-06-15T14:37:54.595Z,5.70
2018-06-15T14:57:39.516Z,5.33
2018-06-15T15:00:08.144Z,5.90
2018-06-15T15:19:55.155Z,5.87
2018-06-15T15:22:23.645Z,6.00
2018-06-15T15:42:29.166Z,5.85
2018-06-15T15:44:57.685Z,5.65
2018-06-15T15:47:26.266Z,5.60
2018-06-15T16:07:13.166Z,6.33
2018-06-15T16:27:00.715Z,6.37
2018-06-15T16:46:47.075Z,6.53
2018-06-15T17:20:59.209Z,6.37
2018-06-15T17:23:27.788Z,6.20
2018-06-15T17:25:56.349Z,6.97
2018-06-15T17:28:24.856Z,6.67
2018-06-15T17:48:12.938Z,7.00
2018-06-15T18:08:00.976Z,7.40
2018-06-15T18:10:29.444Z,6.70
2018-06-15T18:12:57.917Z,7.70
2018-06-15T18:15:26.576Z,7.10
2018-06-15T18:17:55.185Z,7.03
2018-06-15T18:20:23.651Z,6.90
2018-06-15T18:22:52.164Z,7.63
2018-06-15T19:00:08.203Z,8.30
2018-06-15T19:08:22.724Z,8.80
2018-06-15T19:10:51.075Z,8.93
2018-06-15T19:30:39.242Z,10.37
2018-06-15T19:33:07.680Z,9.83
2018-06-15T19:35:35.857Z,9.93
2018-06-15T19:55:20.622Z,9.80
2018-06-15T20:15:06.454Z,11.40
2018-06-15T20:40:37.137Z,13.33
2018-06-15T20:43:05.820Z,13.77
2018-06-15T20:45:34.687Z,12.87
2018-06-15T20:48:03.106Z,12.63
2018-06-15T20:50:31.159Z,13.10
2018-06-15T20:52:59.796Z,13.67
2018-06-15T20:55:28.369Z,13.47
2018-06-15T20:57:56.845Z,14.57
2018-06-15T21:00:25.484Z,14.60
2018-06-15T21:02:53.595Z,13.90
2018-06-15T21:05:21.949Z,15.10
2018-06-15T21:07:50.528Z,15.27
2018-06-15T21:10:18.991Z,14.90
2018-06-15T21:12:47.465Z,14.77
2018-06-15T21:15:15.956Z,15.37
2018-06-15T21:17:44.412Z,14.97
2018-06-15T21:20:12.892Z,14.40
2018-06-15T21:22:41.467Z,15.53
2018-06-15T21:25:10.041Z,15.80
2018-06-15T21:27:38.645Z,16.23
2018-06-15T21:30:06.678Z,15.20
2018-06-15T21:32:35.008Z,16.03
2018-06-15T21:35:03.658Z,15.40
2018-06-15T21:37:32.186Z,15.40
2018-06-15T21:40:00.802Z,15.67
2018-06-15T21:42:29.321Z,15.47
2018-06-15T21:44:57.901Z,15.40
2018-06-15T22:04:34.549Z,14.73
2018-06-15T22:07:02.860Z,15.03
2018-06-15T22:09:31.249Z,15.10
2018-06-15T22:29:15.274Z,15.67
2018-06-15T22:31:43.387Z,15.67
2018-06-15T22:34:11.670Z,15.90
2018-06-15T22:36:40.793Z,14.73
2018-06-15T22:39:12.041Z,15.43
2018-06-15T22:41:40.809Z,15.47
2018-06-15T22:44:09.466Z,16.53
2018-06-15T22:46:38.190Z,15.50
2018-06-15T22:49:06.966Z,15.27
2018-06-15T22:51:35.109Z,15.87
2018-06-15T22:54:03.866Z,15.50
2018-06-15T22:56:32.363Z,15.80
2018-06-15T22:59:00.887Z,15.47
2018-06-15T23:01:29.181Z,16.43
2018-06-15T23:03:57.786Z,16.00
2018-06-15T23:06:26.046Z,15.97
2018-06-15T23:08:54.711Z,15.37
2018-06-15T23:11:23.204Z,15.63
2018-06-15T23:13:51.774Z,14.40
2018-06-15T23:16:20.092Z,16.40
2018-06-15T23:18:48.682Z,16.90
2018-06-15T23:21:17.245Z,16.00
2018-06-15T23:23:46.542Z,16.53
2018-06-15T23:26:15.667Z,15.27
2018-06-15T23:28:43.954Z,16.10
2018-06-15T23:31:12.219Z,17.00
2018-06-15T23:33:40.508Z,16.10
2018-06-15T23:36:08.798Z,16.00
2018-06-15T23:38:37.090Z,16.70
2018-06-15T23:41:05.359Z,16.30
2018-06-15T23:43:33.662Z,15.93
2018-06-15T23:46:01.930Z,15.80
2018-06-15T23:48:30.215Z,15.70
2018-06-15T23:50:58.490Z,15.97
2018-06-15T23:53:26.788Z,15.93
2018-06-15T23:55:55.050Z,15.07
2018-06-15T23:58:23.332Z,14.70
